createdAt,value
2023-03-08T00:03:54.766Z,2.10
2023-03-08T00:08:56.619Z,2.00
2023-03-08T00:13:55.573Z,2.03
2023-03-08T00:18:55.072Z,1.70
2023-03-08T00:23:54.960Z,2.00
2023-03-08T00:28:53.334Z,1.73
2023-03-08T00:33:55.179Z,2.40
2023-03-08T00:38:53.648Z,2.00
2023-03-08T00:43:52.293Z,2.83
2023-03-08T00:48:50.541Z,2.23
2023-03-08T00:53:50.684Z,2.63
2023-03-08T00:58:48.956Z,2.70
2023-03-08T01:03:47.554Z,3.40
2023-03-08T01:08:47.254Z,4.03
2023-03-08T01:13:47.109Z,3.80
2023-03-08T01:18:45.455Z,3.40
2023-03-08T01:23:44.057Z,3.83
2023-03-08T01:28:42.291Z,4.10
2023-03-08T01:33:42.410Z,3.93
2023-03-08T01:38:40.700Z,3.80
2023-03-08T01:43:40.340Z,5.10
2023-03-08T01:48:45.512Z,5.23
2023-03-08T01:53:48.797Z,5.43
2023-03-08T01:58:50.031Z,5.20
2023-03-08T02:03:49.948Z,5.73
2023-03-08T02:08:51.410Z,6.20
2023-03-08T02:13:51.349Z,6.40
2023-03-08T02:18:56.688Z,5.93
2023-03-08T02:23:57.558Z,5.40
2023-03-08T02:28:55.794Z,7.00
2023-03-08T02:33:54.045Z,7.30
2023-03-08T02:38:52.301Z,7.00
2023-03-08T02:43:51.877Z,6.97
2023-03-08T02:48:52.942Z,7.13
2023-03-08T02:53:52.787Z,7.73
2023-03-08T02:58:52.453Z,7.20
2023-03-08T03:03:55.750Z,7.20
2023-03-08T03:08:53.791Z,7.30
2023-03-08T03:13:58.750Z,7.50
2023-03-08T03:19:01.860Z,8.33
2023-03-08T03:24:00.112Z,7.60
2023-03-08T03:29:07.281Z,8.30
2023-03-08T03:34:09.542Z,7.13
2023-03-08T03:39:08.612Z,7.80
2023-03-08T03:44:10.480Z,7.73
2023-03-08T03:49:10.274Z,8.37
2023-03-08T03:54:11.771Z,7.20
2023-03-08T03:59:13.432Z,7.13
2023-03-08T04:04:12.323Z,6.93
2023-03-08T04:09:16.784Z,7.97
2023-03-08T04:14:19.362Z,7.17
2023-03-08T04:19:17.980Z,8.00
2023-03-08T04:24:21.943Z,6.73
2023-03-08T04:29:25.025Z,6.57
2023-03-08T04:34:23.762Z,7.60
2023-03-08T04:39:23.034Z,8.00
2023-03-08T04:44:21.628Z,6.80
2023-03-08T04:49:24.875Z,6.90
2023-03-08T04:54:28.636Z,7.00
2023-03-08T04:59:33.434Z,8.07
2023-03-08T05:04:35.989Z,7.10
2023-03-08T05:09:34.257Z,8.00
2023-03-08T05:14:33.469Z,7.57
2023-03-08T05:19:31.881Z,6.77
2023-03-08T05:24:32.240Z,7.10
2023-03-08T05:29:37.362Z,7.20
2023-03-08T05:34:37.088Z,7.43
2023-03-08T05:39:39.737Z,8.27
2023-03-08T05:44:47.628Z,8.60
2023-03-08T05:49:50.871Z,7.47
2023-03-08T05:54:51.902Z,7.20
2023-03-08T05:59:51.698Z,8.57
2023-03-08T06:04:53.435Z,7.87
2023-03-08T06:09:56.441Z,7.53
2023-03-08T06:14:55.547Z,8.17
2023-03-08T06:19:58.018Z,8.30
2023-03-08T06:24:57.814Z,9.00
2023-03-08T06:30:02.544Z,8.37
2023-03-08T06:35:03.330Z,7.17
2023-03-08T06:40:05.944Z,8.20
2023-03-08T06:45:04.968Z,8.57
2023-03-08T06:50:03.342Z,8.07
2023-03-08T06:55:03.129Z,6.77
2023-03-08T07:00:01.758Z,8.57
2023-03-08T07:04:59.807Z,7.90
2023-03-08T07:09:58.125Z,6.73
2023-03-08T07:14:57.681Z,7.40
2023-03-08T07:19:55.907Z,7.30
2023-03-08T07:24:54.173Z,8.13
2023-03-08T07:29:52.786Z,8.57
2023-03-08T07:34:52.952Z,9.30
2023-03-08T07:39:51.256Z,9.17
2023-03-08T07:44:49.532Z,7.73
2023-03-08T07:49:47.844Z,8.40
2023-03-08T07:54:47.442Z,8.07
2023-03-08T07:59:45.819Z,7.93
2023-03-08T08:04:44.052Z,9.00
2023-03-08T08:09:42.817Z,9.03
2023-03-08T08:14:42.447Z,7.90
2023-03-08T08:19:40.685Z,7.47
2023-03-08T08:24:38.930Z,7.23
2023-03-08T08:29:38.271Z,6.40
2023-03-08T08:34:37.893Z,7.07
2023-03-08T08:39:36.139Z,7.57
2023-03-08T08:44:34.372Z,7.07
2023-03-08T08:49:32.635Z,6.30
2023-03-08T08:54:33.920Z,6.80
2023-03-08T08:59:32.213Z,6.47
2023-03-08T09:04:30.775Z,6.70
2023-03-08T09:09:29.248Z,6.87
2023-03-08T09:14:28.836Z,5.70
2023-03-08T09:19:27.114Z,5.60
2023-03-08T09:24:25.415Z,5.77
2023-03-08T09:29:23.859Z,6.53
2023-03-08T09:34:23.471Z,6.30
2023-03-08T09:39:21.854Z,5.03
2023-03-08T09:44:46.375Z,5.53
2023-03-08T09:49:51.522Z,5.00
2023-03-08T09:54:51.169Z,4.90
2023-03-08T09:59:55.258Z,4.83
2023-03-08T10:05:12.356Z,4.70
2023-03-08T10:10:25.012Z,5.40
2023-03-08T10:15:26.367Z,4.87
2023-03-08T10:20:30.055Z,4.20
2023-03-08T10:25:31.435Z,4.87
2023-03-08T10:30:34.510Z,5.17
2023-03-08T10:35:37.706Z,4.70
2023-03-08T10:40:36.010Z,4.07
2023-03-08T10:45:34.386Z,3.83
2023-03-08T10:50:36.631Z,4.33
2023-03-08T10:55:43.355Z,3.80
2023-03-08T11:00:44.901Z,3.93
2023-03-08T11:05:55.469Z,3.90
2023-03-08T11:11:05.169Z,3.03
2023-03-08T11:16:20.295Z,2.53
2023-03-08T11:21:26.974Z,2.83
2023-03-08T11:26:31.686Z,2.90
2023-03-08T11:31:34.921Z,3.20
2023-03-08T11:36:41.299Z,3.23
2023-03-08T11:41:49.124Z,3.43
2023-03-08T11:47:02.046Z,3.63
2023-03-08T11:52:07.586Z,3.53
2023-03-08T11:57:10.172Z,3.00
2023-03-08T12:02:17.216Z,3.10
2023-03-08T12:07:24.729Z,3.50
2023-03-08T12:12:28.240Z,3.33
2023-03-08T12:17:29.920Z,3.93
2023-03-08T12:22:41.730Z,3.80
2023-03-08T12:27:45.807Z,3.80
2023-03-08T12:32:45.314Z,3.67
2023-03-08T12:37:45.173Z,3.23
2023-03-08T12:42:43.577Z,3.23
2023-03-08T12:47:41.899Z,4.33
2023-03-08T12:52:40.302Z,4.60
2023-03-08T12:57:48.105Z,3.93
2023-03-08T13:02:46.453Z,4.50
2023-03-08T13:07:56.643Z,4.43
2023-03-08T13:13:35.258Z,3.83
2023-03-08T13:18:37.043Z,4.17
2023-03-08T13:23:38.476Z,4.57
2023-03-08T13:28:46.972Z,4.37
2023-03-08T13:33:48.291Z,4.40
2023-03-08T13:38:55.848Z,4.43
2023-03-08T13:44:02.596Z,4.23
2023-03-08T13:49:02.438Z,5.13
2023-03-08T13:54:00.805Z,5.27
2023-03-08T13:59:01.358Z,5.17
2023-03-08T14:04:01.470Z,5.40
2023-03-08T14:09:02.561Z,5.80
2023-03-08T14:14:05.134Z,5.80
2023-03-08T14:19:11.400Z,6.63
2023-03-08T14:24:22.248Z,5.70
2023-03-08T14:29:23.401Z,5.73
2023-03-08T14:34:23.994Z,6.90
2023-03-08T14:39:24.346Z,5.97
2023-03-08T14:44:26.129Z,5.97
2023-03-08T14:49:25.862Z,7.70
2023-03-08T14:54:32.932Z,6.50
2023-03-08T14:59:32.718Z,6.23
2023-03-08T15:04:31.039Z,7.97
2023-03-08T15:09:30.229Z,7.07
2023-03-08T15:14:30.683Z,6.73
2023-03-08T15:19:30.539Z,7.90
2023-03-08T15:24:29.233Z,7.33
2023-03-08T15:29:29.858Z,8.47
2023-03-08T15:34:29.855Z,7.63
2023-03-08T15:39:28.287Z,8.77
2023-03-08T15:44:26.603Z,8.70
2023-03-08T15:49:24.854Z,8.23
2023-03-08T15:54:24.455Z,9.37
2023-03-08T15:59:22.735Z,9.53
2023-03-08T16:04:21.279Z,9.30
2023-03-08T16:09:19.587Z,8.80
2023-03-08T16:14:19.294Z,8.97
2023-03-08T16:19:17.676Z,9.90
2023-03-08T16:24:15.990Z,8.90
2023-03-08T16:29:14.293Z,9.10
2023-03-08T16:34:14.152Z,8.00
2023-03-08T16:39:12.872Z,7.87
2023-03-08T16:44:21.459Z,8.67
2023-03-08T16:49:22.876Z,8.67
2023-03-08T16:54:21.450Z,9.50
2023-03-08T16:59:19.755Z,9.63
2023-03-08T17:04:19.574Z,7.70
2023-03-08T17:09:19.225Z,7.87
2023-03-08T17:14:17.847Z,9.47
2023-03-08T17:19:16.146Z,9.77
2023-03-08T17:24:15.946Z,8.57
2023-03-08T17:29:15.970Z,8.03
2023-03-08T17:34:14.251Z,8.00
2023-03-08T17:39:12.538Z,9.70
2023-03-08T17:44:10.814Z,9.57
2023-03-08T17:49:12.198Z,8.20
2023-03-08T17:54:11.968Z,7.57
2023-03-08T17:59:15.215Z,7.90
2023-03-08T18:04:14.850Z,7.23
2023-03-08T18:09:15.488Z,8.13
2023-03-08T18:14:16.223Z,7.53
2023-03-08T18:19:16.310Z,7.40
2023-03-08T18:24:14.606Z,7.50
2023-03-08T18:29:12.916Z,7.67
2023-03-08T18:34:12.597Z,7.13
2023-03-08T18:39:14.556Z,7.10
2023-03-08T18:44:13.852Z,7.60
2023-03-08T18:49:14.051Z,7.57
2023-03-08T18:54:16.153Z,7.30
2023-03-08T18:59:15.586Z,7.47
2023-03-08T19:04:14.657Z,8.50
2023-03-08T19:09:16.023Z,7.20
2023-03-08T19:14:14.554Z,7.90
2023-03-08T19:19:14.736Z,8.20
2023-03-08T19:24:15.810Z,7.73
2023-03-08T19:29:17.992Z,7.90
2023-03-08T19:34:16.743Z,6.97
2023-03-08T19:39:20.076Z,8.17
2023-03-08T19:44:18.944Z,9.30
2023-03-08T19:49:19.573Z,6.37
2023-03-08T19:54:19.752Z,6.97
2023-03-08T19:59:18.311Z,6.20
2023-03-08T20:04:16.832Z,6.20
2023-03-08T20:09:18.429Z,5.03
2023-03-08T20:14:18.462Z,5.30
2023-03-08T20:19:17.817Z,6.67
2023-03-08T20:24:18.171Z,5.90
2023-03-08T20:29:18.482Z,6.73
2023-03-08T20:34:17.639Z,6.60
2023-03-08T20:39:16.084Z,5.70
2023-03-08T20:44:14.358Z,6.57
2023-03-08T20:49:14.017Z,7.63
2023-03-08T20:54:12.636Z,7.20
2023-03-08T20:59:11.182Z,8.70
2023-03-08T21:04:09.466Z,8.73
2023-03-08T21:09:09.228Z,9.10
2023-03-08T21:14:07.597Z,9.80
2023-03-08T21:19:07.100Z,11.20
2023-03-08T21:24:09.444Z,10.03
2023-03-08T21:29:10.268Z,10.70
2023-03-08T21:34:09.774Z,10.87
2023-03-08T21:39:10.312Z,10.93
2023-03-08T21:44:10.498Z,10.90
2023-03-08T21:49:11.560Z,11.10
2023-03-08T21:54:11.435Z,11.30
2023-03-08T21:59:09.790Z,11.10
2023-03-08T22:04:08.089Z,12.37
2023-03-08T22:09:06.404Z,10.40
2023-03-08T22:14:06.317Z,12.00
2023-03-08T22:19:05.681Z,10.70
2023-03-08T22:24:04.152Z,11.87
2023-03-08T22:29:02.452Z,10.70
2023-03-08T22:34:02.490Z,10.77
2023-03-08T22:39:00.737Z,11.53
2023-03-08T22:43:59.397Z,12.33
2023-03-08T22:48:59.271Z,12.13
2023-03-08T22:54:04.038Z,12.37
2023-03-08T22:59:04.404Z,12.50
2023-03-08T23:04:07.756Z,11.80
2023-03-08T23:09:11.507Z,11.80
2023-03-08T23:14:10.371Z,11.63
2023-03-08T23:19:08.799Z,11.20
2023-03-08T23:24:09.502Z,11.77
2023-03-08T23:29:08.200Z,10.83
2023-03-08T23:34:07.335Z,9.97
2023-03-08T23:39:05.800Z,11.20
2023-03-08T23:44:05.498Z,10.20
2023-03-08T23:49:03.790Z,11.90
2023-03-08T23:54:03.174Z,11.40
2023-03-08T23:59:03.293Z,11.57
